createdAt,value
2018-03-08T00:02:07.660Z,5.30
2018-03-08T00:04:36.918Z,5.20
2018-03-08T00:07:06.468Z,5.20
2018-03-08T00:09:35.704Z,5.30
2018-03-08T00:12:04.973Z,5.20
2018-03-08T00:14:34.237Z,5.10
2018-03-08T00:17:03.497Z,5.10
2018-03-08T00:19:32.803Z,5.10
2018-03-08T00:22:02.052Z,5.10
2018-03-08T00:24:32.880Z,5.10
2018-03-08T00:27:02.202Z,5.10
2018-03-08T00:29:32.344Z,5.20
2018-03-08T00:32:08.786Z,5.10
2018-03-08T00:34:38.992Z,5.00
2018-03-08T00:37:09.584Z,5.10
2018-03-08T00:39:40.087Z,5.10
2018-03-08T00:42:09.335Z,5.10
2018-03-08T00:44:38.743Z,5.10
2018-03-08T00:47:08.267Z,5.10
2018-03-08T00:49:43.726Z,5.10
2018-03-08T00:52:14.080Z,5.10
2018-03-08T00:54:43.300Z,5.10
2018-03-08T00:57:12.579Z,5.10
2018-03-08T00:59:42.609Z,5.10
2018-03-08T01:02:11.977Z,5.10
2018-03-08T01:05:08.776Z,5.10
2018-03-08T01:08:08.595Z,5.10
2018-03-08T01:10:38.519Z,5.00
2018-03-08T01:13:08.026Z,5.10
2018-03-08T01:15:37.350Z,5.10
2018-03-08T01:18:06.752Z,5.10
2018-03-08T01:20:36.028Z,5.10
2018-03-08T01:23:05.283Z,5.10
2018-03-08T01:25:35.338Z,5.10
2018-03-08T01:28:12.403Z,5.10
2018-03-08T01:30:41.704Z,5.10
2018-03-08T01:33:38.496Z,5.10
2018-03-08T01:36:25.413Z,5.00
2018-03-08T01:39:00.000Z,4.90
2018-03-08T01:41:30.224Z,4.90
2018-03-08T01:43:59.512Z,4.90
2018-03-08T01:46:28.813Z,4.80
2018-03-08T01:49:02.617Z,4.70
2018-03-08T01:51:32.296Z,4.60
2018-03-08T01:54:03.371Z,4.60
2018-03-08T01:56:33.251Z,4.60
2018-03-08T01:59:02.515Z,4.60
2018-03-08T02:01:31.764Z,4.60
2018-03-08T02:04:01.085Z,4.50
2018-03-08T02:06:30.379Z,4.40
2018-03-08T02:08:59.648Z,4.40
2018-03-08T02:11:28.929Z,4.30
2018-03-08T02:14:10.575Z,4.30
2018-03-08T02:16:39.875Z,4.30
2018-03-08T02:19:09.275Z,4.30
2018-03-08T02:21:39.851Z,4.30
2018-03-08T02:24:09.276Z,4.20
2018-03-08T02:26:48.002Z,4.30
2018-03-08T02:29:19.347Z,4.20
2018-03-08T02:31:48.619Z,4.20
2018-03-08T02:34:17.876Z,4.10
2018-03-08T02:36:47.212Z,4.10
2018-03-08T02:39:24.572Z,4.00
2018-03-08T02:41:54.186Z,4.00
2018-03-08T02:44:23.471Z,4.00
2018-03-08T02:46:52.868Z,4.00
2018-03-08T02:49:38.685Z,4.00
2018-03-08T02:52:08.003Z,3.90
2018-03-08T02:54:37.262Z,3.90
2018-03-08T02:57:06.553Z,3.80
2018-03-08T02:59:36.478Z,3.80
2018-03-08T03:02:05.774Z,3.80
2018-03-08T03:04:35.055Z,3.80
2018-03-08T03:07:04.734Z,3.80
2018-03-08T03:09:34.006Z,3.80
2018-03-08T03:12:04.840Z,3.70
2018-03-08T03:14:34.098Z,3.70
2018-03-08T03:17:03.374Z,3.70
2018-03-08T03:19:32.637Z,3.70
2018-03-08T03:24:49.672Z,3.70
2018-03-08T03:27:18.975Z,3.70
2018-03-08T03:29:48.270Z,3.70
2018-03-08T03:32:18.919Z,3.70
2018-03-08T03:34:49.095Z,3.60
2018-03-08T03:37:20.106Z,3.60
2018-03-08T03:39:49.618Z,3.70
2018-03-08T03:42:18.883Z,3.60
2018-03-08T03:44:49.118Z,3.60
2018-03-08T03:47:18.412Z,3.60
2018-03-08T03:49:47.680Z,3.60
2018-03-08T03:52:17.323Z,3.60
2018-03-08T03:54:46.606Z,3.60
2018-03-08T03:57:16.639Z,3.60
2018-03-08T03:59:45.934Z,3.50
2018-03-08T04:02:15.188Z,3.60
2018-03-08T04:04:44.531Z,3.50
2018-03-08T04:07:13.765Z,3.40
2018-03-08T04:09:44.182Z,3.40
2018-03-08T04:12:13.472Z,3.40
2018-03-08T04:14:42.680Z,3.40
2018-03-08T04:17:12.344Z,3.40
2018-03-08T04:19:41.590Z,3.40
2018-03-08T04:22:10.905Z,3.40
2018-03-08T04:24:40.482Z,3.20
2018-03-08T04:27:11.014Z,3.10
2018-03-08T04:29:40.341Z,3.10
2018-03-08T04:32:10.558Z,3.10
2018-03-08T04:34:39.868Z,3.00
2018-03-08T04:37:13.889Z,3.10
2018-03-08T04:39:43.339Z,3.10
2018-03-08T04:42:12.643Z,3.10
2018-03-08T04:44:42.678Z,3.00
2018-03-08T04:47:11.962Z,2.90
2018-03-08T04:49:42.003Z,3.10
2018-03-08T04:52:13.954Z,3.00
2018-03-08T04:54:55.797Z,3.00
2018-03-08T04:57:25.072Z,3.00
2018-03-08T04:59:54.367Z,2.90
2018-03-08T05:02:26.482Z,2.90
2018-03-08T05:04:57.576Z,2.90
2018-03-08T05:07:26.882Z,2.90
2018-03-08T05:09:56.163Z,2.90
2018-03-08T05:12:25.459Z,2.90
2018-03-08T05:14:56.559Z,2.90
2018-03-08T05:17:30.725Z,2.90
2018-03-08T05:20:00.110Z,2.90
2018-03-08T05:22:29.892Z,2.90
2018-03-08T05:24:59.167Z,3.00
2018-03-08T05:27:39.169Z,3.00
2018-03-08T05:30:08.662Z,2.90
2018-03-08T05:32:38.006Z,2.80
2018-03-08T05:35:10.180Z,2.80
2018-03-08T05:37:39.805Z,2.80
2018-03-08T05:40:09.819Z,2.80
2018-03-08T05:42:41.781Z,2.90
2018-03-08T05:45:11.038Z,2.80
2018-03-08T05:47:40.356Z,2.90
2018-03-08T05:50:09.654Z,3.00
2018-03-08T05:52:40.626Z,3.00
2018-03-08T05:58:14.666Z,3.10
2018-03-08T06:00:43.944Z,3.00
2018-03-08T06:03:13.204Z,3.10
2018-03-08T06:05:44.469Z,3.10
2018-03-08T06:08:13.743Z,3.20
2018-03-08T06:10:43.022Z,3.20
2018-03-08T06:13:12.322Z,3.20
2018-03-08T06:15:41.583Z,3.30
2018-03-08T06:18:11.910Z,3.40
2018-03-08T06:20:42.009Z,3.40
2018-03-08T06:23:11.590Z,3.30
2018-03-08T06:25:40.856Z,3.40
2018-03-08T06:28:10.128Z,3.40
2018-03-08T06:30:39.438Z,3.50
2018-03-08T06:33:08.720Z,3.60
2018-03-08T06:35:38.200Z,3.60
2018-03-08T06:38:07.603Z,3.70
2018-03-08T06:40:36.851Z,3.70
2018-03-08T06:43:07.426Z,3.70
2018-03-08T06:45:37.529Z,3.70
2018-03-08T06:48:07.585Z,3.90
2018-03-08T06:50:36.930Z,3.80
2018-03-08T06:53:06.187Z,3.90
2018-03-08T06:55:35.487Z,4.00
2018-03-08T06:58:04.794Z,4.10
2018-03-08T07:00:34.147Z,4.10
2018-03-08T07:03:03.385Z,4.10
2018-03-08T07:05:32.660Z,4.10
2018-03-08T07:08:01.996Z,4.10
2018-03-08T07:10:31.267Z,4.20
2018-03-08T07:13:09.232Z,4.20
2018-03-08T07:15:38.497Z,4.20
2018-03-08T07:18:07.771Z,4.30
2018-03-08T07:20:37.056Z,4.30
2018-03-08T07:23:06.295Z,4.50
2018-03-08T07:25:35.578Z,4.50
2018-03-08T07:28:04.838Z,4.50
2018-03-08T07:30:35.173Z,4.50
2018-03-08T07:33:04.445Z,4.50
2018-03-08T07:35:33.720Z,4.50
2018-03-08T07:38:03.776Z,4.70
2018-03-08T07:40:33.043Z,4.60
2018-03-08T07:43:03.095Z,4.70
2018-03-08T07:45:32.398Z,4.70
2018-03-08T07:48:02.444Z,4.80
2018-03-08T07:50:31.773Z,4.80
2018-03-08T07:53:01.046Z,4.90
2018-03-08T07:55:30.665Z,4.90
2018-03-08T07:57:59.902Z,5.00
2018-03-08T08:00:29.213Z,5.10
2018-03-08T08:02:58.518Z,5.00
2018-03-08T08:08:53.153Z,4.90
2018-03-08T08:11:23.226Z,5.00
2018-03-08T08:13:52.553Z,4.90
2018-03-08T08:16:22.143Z,5.10
2018-03-08T08:18:51.439Z,5.10
2018-03-08T08:21:20.688Z,5.10
2018-03-08T08:23:49.971Z,5.10
2018-03-08T08:26:19.254Z,5.20
2018-03-08T08:28:49.585Z,5.40
2018-03-08T08:31:19.615Z,5.40
2018-03-08T08:33:49.943Z,5.40
2018-03-08T08:36:19.226Z,5.50
2018-03-08T08:38:48.501Z,5.60
2018-03-08T08:41:17.768Z,5.70
2018-03-08T08:43:47.203Z,5.70
2018-03-08T08:46:16.440Z,5.80
2018-03-08T08:48:46.087Z,5.80
2018-03-08T08:51:15.527Z,5.70
2018-03-08T08:53:44.779Z,5.70
2018-03-08T08:56:14.069Z,5.80
2018-03-08T08:58:43.349Z,5.90
2018-03-08T09:01:12.627Z,5.90
2018-03-08T09:03:41.901Z,5.90
2018-03-08T09:06:11.221Z,6.10
2018-03-08T09:08:40.494Z,6.20
2018-03-08T09:11:09.830Z,6.40
2018-03-08T09:13:40.029Z,6.70
2018-03-08T09:16:09.323Z,6.70
2018-03-08T09:18:38.642Z,6.70
2018-03-08T09:21:08.018Z,6.70
2018-03-08T09:23:37.310Z,6.80
2018-03-08T09:26:06.564Z,7.00
2018-03-08T09:28:36.605Z,7.00
2018-03-08T09:31:05.866Z,7.00
2018-03-08T09:33:35.171Z,6.90
2018-03-08T09:36:04.446Z,6.90
2018-03-08T09:38:34.668Z,7.00
2018-03-08T09:41:03.939Z,7.20
2018-03-08T09:43:33.220Z,7.60
2018-03-08T09:46:02.483Z,7.80
2018-03-08T09:48:31.860Z,7.80
2018-03-08T09:51:01.156Z,7.70
2018-03-08T09:53:30.406Z,8.00
2018-03-08T09:55:59.700Z,7.90
2018-03-08T09:58:28.955Z,7.70
2018-03-08T10:00:58.226Z,7.80
2018-03-08T10:03:27.485Z,7.70
2018-03-08T10:05:57.014Z,7.80
2018-03-08T10:08:27.022Z,7.60
2018-03-08T10:10:57.065Z,7.70
2018-03-08T10:13:26.352Z,7.70
2018-03-08T10:15:55.624Z,7.60
2018-03-08T10:18:24.959Z,7.50
2018-03-08T10:20:54.252Z,7.40
2018-03-08T10:23:23.562Z,7.30
2018-03-08T10:25:52.862Z,7.20
2018-03-08T10:28:22.111Z,7.20
2018-03-08T10:30:51.668Z,7.30
2018-03-08T10:33:20.921Z,7.20
2018-03-08T10:35:50.159Z,7.10
2018-03-08T10:38:19.463Z,7.10
2018-03-08T10:40:48.717Z,7.10
2018-03-08T10:43:18.221Z,7.10
2018-03-08T10:45:47.503Z,7.10
2018-03-08T10:48:16.765Z,7.10
2018-03-08T10:50:46.128Z,7.00
2018-03-08T10:53:15.391Z,7.00
2018-03-08T10:55:44.683Z,7.10
2018-03-08T10:58:13.944Z,7.10
2018-03-08T11:00:47.038Z,7.10
2018-03-08T11:03:16.282Z,7.20
2018-03-08T11:05:47.346Z,7.30
2018-03-08T11:08:30.758Z,7.30
2018-03-08T11:11:00.433Z,7.30
2018-03-08T11:13:29.698Z,7.20
2018-03-08T11:15:59.014Z,7.30
2018-03-08T11:18:28.329Z,7.30
2018-03-08T11:20:57.658Z,7.40
2018-03-08T11:23:26.940Z,7.60
2018-03-08T11:25:56.206Z,7.90
2018-03-08T11:28:25.507Z,8.00
2018-03-08T11:30:55.524Z,8.10
2018-03-08T11:33:25.959Z,8.20
2018-03-08T11:38:30.271Z,8.30
2018-03-08T11:40:59.520Z,8.50
2018-03-08T11:43:28.759Z,8.60
2018-03-08T11:45:58.036Z,8.60
2018-03-08T11:48:27.818Z,8.60
2018-03-08T11:50:57.831Z,8.70
2018-03-08T11:53:26.397Z,8.70
2018-03-08T11:55:55.690Z,9.00
2018-03-08T11:58:24.944Z,9.10
2018-03-08T12:00:54.252Z,9.20
2018-03-08T12:03:23.534Z,9.20
2018-03-08T12:05:53.064Z,9.30
2018-03-08T12:08:22.331Z,9.20
2018-03-08T12:10:51.602Z,9.00
2018-03-08T12:13:20.906Z,8.90
2018-03-08T12:15:50.180Z,8.80
2018-03-08T12:18:19.497Z,8.90
2018-03-08T12:20:49.069Z,8.90
2018-03-08T12:23:18.431Z,9.00
2018-03-08T12:26:14.276Z,9.00
2018-03-08T12:28:45.027Z,9.00
2018-03-08T12:31:15.108Z,9.30
2018-03-08T12:33:45.891Z,9.30
2018-03-08T12:38:49.887Z,9.50
2018-03-08T12:41:19.166Z,9.80
2018-03-08T12:43:48.438Z,9.60
2018-03-08T12:46:17.727Z,9.60
2018-03-08T12:48:46.992Z,9.40
2018-03-08T12:51:16.247Z,9.40
2018-03-08T12:53:45.520Z,9.40
2018-03-08T12:56:14.815Z,9.40
2018-03-08T12:58:44.182Z,9.40
2018-03-08T13:01:13.468Z,9.40
2018-03-08T13:03:42.743Z,9.30
2018-03-08T13:06:14.447Z,9.30
2018-03-08T13:08:43.694Z,9.40
2018-03-08T13:13:55.808Z,9.60
2018-03-08T13:19:42.441Z,10.00
2018-03-08T13:22:11.715Z,10.30
2018-03-08T13:24:41.007Z,10.60
2018-03-08T13:27:10.270Z,10.60
2018-03-08T13:29:40.325Z,10.60
2018-03-08T13:32:09.606Z,10.60
2018-03-08T13:34:38.910Z,10.50
2018-03-08T13:37:08.179Z,10.40
2018-03-08T13:39:38.216Z,10.30
2018-03-08T13:42:12.187Z,10.30
2018-03-08T13:44:45.334Z,10.30
2018-03-08T13:47:15.516Z,10.30
2018-03-08T13:49:44.763Z,10.30
2018-03-08T13:52:14.900Z,10.50
2018-03-08T13:54:44.932Z,10.60
2018-03-08T13:57:17.211Z,10.70
2018-03-08T13:59:46.831Z,10.60
2018-03-08T14:02:17.417Z,10.70
2018-03-08T14:04:46.644Z,10.60
2018-03-08T14:07:15.923Z,10.60
2018-03-08T14:09:45.223Z,10.40
2018-03-08T14:12:14.552Z,10.30
2018-03-08T14:14:44.562Z,10.30
2018-03-08T14:17:13.864Z,10.20
2018-03-08T14:19:43.336Z,10.20
2018-03-08T14:22:12.835Z,10.30
2018-03-08T14:24:42.245Z,10.30
2018-03-08T14:27:11.623Z,10.30
2018-03-08T14:29:41.646Z,10.30
2018-03-08T14:32:10.983Z,10.30
2018-03-08T14:34:40.296Z,10.40
2018-03-08T14:39:44.040Z,10.30
2018-03-08T14:42:13.340Z,10.20
2018-03-08T14:44:42.618Z,10.30
2018-03-08T14:47:12.070Z,10.30
2018-03-08T14:49:41.461Z,10.20
2018-03-08T14:52:10.783Z,10.30
2018-03-08T14:54:42.182Z,10.20
2018-03-08T14:57:17.974Z,10.20
2018-03-08T14:59:47.301Z,10.20
2018-03-08T15:04:56.110Z,10.30
2018-03-08T15:07:25.480Z,10.30
2018-03-08T15:09:54.758Z,10.40
2018-03-08T15:12:24.047Z,10.50
2018-03-08T15:14:53.316Z,10.40
2018-03-08T15:17:36.759Z,10.40
2018-03-08T15:20:06.839Z,10.40
2018-03-08T15:22:36.112Z,10.40
2018-03-08T15:25:06.522Z,10.40
2018-03-08T15:27:35.790Z,10.40
2018-03-08T15:30:05.827Z,10.30
2018-03-08T15:32:35.135Z,10.30
2018-03-08T15:35:05.379Z,10.30
2018-03-08T15:37:34.642Z,10.30
2018-03-08T15:40:09.925Z,10.30
2018-03-08T15:42:39.219Z,10.30
2018-03-08T15:45:08.502Z,10.30
2018-03-08T15:47:40.600Z,10.30
2018-03-08T15:50:09.916Z,10.20
2018-03-08T15:52:39.254Z,10.20
2018-03-08T15:55:10.586Z,10.20
2018-03-08T15:57:40.752Z,10.30
2018-03-08T16:00:10.042Z,10.30
2018-03-08T16:05:33.063Z,10.30
2018-03-08T16:11:47.772Z,10.30
2018-03-08T16:14:17.112Z,10.30
2018-03-08T16:16:46.354Z,10.30
2018-03-08T16:19:15.643Z,10.40
2018-03-08T16:21:44.918Z,10.40
2018-03-08T16:24:14.982Z,10.30
2018-03-08T16:26:44.610Z,10.30
2018-03-08T16:29:13.946Z,10.40
2018-03-08T16:31:43.244Z,10.40
2018-03-08T16:34:13.446Z,10.40
2018-03-08T16:36:43.039Z,10.40
2018-03-08T16:39:12.859Z,10.40
2018-03-08T16:41:42.156Z,10.40
2018-03-08T16:44:11.412Z,10.40
2018-03-08T16:46:40.718Z,10.40
2018-03-08T16:49:12.042Z,10.40
2018-03-08T16:51:41.368Z,10.40
2018-03-08T16:54:10.647Z,10.40
2018-03-08T16:56:39.966Z,10.50
2018-03-08T16:59:11.264Z,10.50
2018-03-08T17:01:40.791Z,10.50
2018-03-08T17:04:10.067Z,10.50
2018-03-08T17:06:39.370Z,10.50
2018-03-08T17:09:08.744Z,10.50
2018-03-08T17:11:38.034Z,10.60
2018-03-08T17:14:08.759Z,10.50
2018-03-08T17:16:38.053Z,10.50
2018-03-08T17:19:07.449Z,10.60
2018-03-08T17:21:36.734Z,10.50
2018-03-08T17:24:06.007Z,10.60
2018-03-08T17:26:35.306Z,10.60
2018-03-08T17:29:04.555Z,10.60
2018-03-08T17:31:34.174Z,10.60
2018-03-08T17:34:04.236Z,10.60
2018-03-08T17:36:33.529Z,10.60
2018-03-08T17:39:02.817Z,10.70
2018-03-08T17:41:32.074Z,10.60
2018-03-08T17:44:01.466Z,10.60
2018-03-08T17:46:31.489Z,10.60
2018-03-08T17:49:01.604Z,10.70
2018-03-08T17:51:30.830Z,10.70
2018-03-08T17:54:00.887Z,10.70
2018-03-08T17:56:30.159Z,10.60
2018-03-08T18:01:49.428Z,10.60
2018-03-08T18:04:18.679Z,10.60
2018-03-08T18:06:47.987Z,10.50
2018-03-08T18:09:17.292Z,10.40
2018-03-08T18:11:46.881Z,10.20
2018-03-08T18:14:16.874Z,9.70
2018-03-08T18:16:46.155Z,9.70
2018-03-08T18:19:15.428Z,9.40
2018-03-08T18:21:44.772Z,8.90
2018-03-08T18:24:14.050Z,8.60
2018-03-08T18:26:43.474Z,8.30
2018-03-08T18:29:12.843Z,7.90
2018-03-08T18:31:42.227Z,7.50
2018-03-08T18:34:13.840Z,6.70
2018-03-08T18:36:43.187Z,6.60
2018-03-08T18:39:12.475Z,6.30
2018-03-08T18:41:41.896Z,6.20
2018-03-08T18:44:11.171Z,6.10
2018-03-08T18:46:40.800Z,6.00
2018-03-08T18:49:10.246Z,5.90
2018-03-08T18:54:23.782Z,5.80
2018-03-08T18:56:55.453Z,5.80
2018-03-08T18:59:24.964Z,5.80
2018-03-08T19:01:55.376Z,5.80
2018-03-08T19:04:24.648Z,5.80
2018-03-08T19:07:06.430Z,5.80
2018-03-08T19:09:36.498Z,5.70
2018-03-08T19:12:08.911Z,5.70
2018-03-08T19:14:39.700Z,5.70
2018-03-08T19:17:09.052Z,5.70
2018-03-08T19:19:39.620Z,5.60
2018-03-08T19:22:09.083Z,5.60
2018-03-08T19:24:43.099Z,5.60
2018-03-08T19:27:12.346Z,5.50
2018-03-08T19:29:41.728Z,5.60
2018-03-08T19:32:11.825Z,5.50
2018-03-08T19:34:41.233Z,5.40
2018-03-08T19:37:10.579Z,5.40
2018-03-08T19:39:39.994Z,5.40
2018-03-08T19:42:10.210Z,5.40
2018-03-08T19:44:39.533Z,5.40
2018-03-08T19:47:10.124Z,5.40
2018-03-08T19:49:40.554Z,5.30
2018-03-08T19:52:10.847Z,5.30
2018-03-08T19:54:40.319Z,5.30
2018-03-08T19:57:10.351Z,5.30
2018-03-08T19:59:40.708Z,5.30
2018-03-08T20:02:12.038Z,5.40
2018-03-08T20:04:41.480Z,5.40
2018-03-08T20:07:11.453Z,5.40
2018-03-08T20:09:42.250Z,5.40
2018-03-08T20:12:12.487Z,5.40
2018-03-08T20:14:42.811Z,5.40
2018-03-08T20:17:12.497Z,5.40
2018-03-08T20:19:41.953Z,5.40
2018-03-08T20:22:11.278Z,5.40
2018-03-08T20:24:40.566Z,5.40
2018-03-08T20:27:10.305Z,5.40
2018-03-08T20:29:39.580Z,5.40
2018-03-08T20:32:08.915Z,5.40
2018-03-08T20:34:38.324Z,5.30
2018-03-08T20:37:07.632Z,5.30
2018-03-08T20:39:37.652Z,5.20
2018-03-08T20:42:07.270Z,5.20
2018-03-08T20:44:36.531Z,5.20
2018-03-08T20:47:05.820Z,5.30
2018-03-08T20:49:35.337Z,5.20
2018-03-08T20:52:05.952Z,5.20
2018-03-08T20:54:45.878Z,5.20
2018-03-08T20:57:15.308Z,5.20
2018-03-08T20:59:52.566Z,5.20
2018-03-08T21:02:23.185Z,5.20
2018-03-08T21:04:55.395Z,5.20
2018-03-08T21:07:24.698Z,5.20
2018-03-08T21:09:54.264Z,5.20
2018-03-08T21:12:23.533Z,5.20
2018-03-08T21:14:54.043Z,5.20
2018-03-08T21:17:24.800Z,5.20
2018-03-08T21:19:54.318Z,5.20
2018-03-08T21:22:23.614Z,5.20
2018-03-08T21:24:52.914Z,5.20
2018-03-08T21:27:22.205Z,5.10
2018-03-08T21:29:51.532Z,5.10
2018-03-08T21:32:20.833Z,5.00
2018-03-08T21:34:50.083Z,5.00
2018-03-08T21:37:20.147Z,4.90
2018-03-08T21:39:49.411Z,4.80
2018-03-08T21:42:26.504Z,4.80
2018-03-08T21:44:56.532Z,4.80
2018-03-08T21:47:25.805Z,4.80
2018-03-08T21:49:55.083Z,4.80
2018-03-08T21:52:24.688Z,4.90
2018-03-08T21:54:54.696Z,4.90
2018-03-08T21:57:24.048Z,4.80
2018-03-08T21:59:53.368Z,4.80
2018-03-08T22:02:28.167Z,4.80
2018-03-08T22:04:58.218Z,4.70
2018-03-08T22:07:27.471Z,4.70
2018-03-08T22:09:56.743Z,4.70
2018-03-08T22:12:26.008Z,4.70
2018-03-08T22:14:55.264Z,4.70
2018-03-08T22:17:24.561Z,4.70
2018-03-08T22:19:53.822Z,4.60
2018-03-08T22:22:24.095Z,4.60
2018-03-08T22:24:53.357Z,4.60
2018-03-08T22:27:22.633Z,4.60
2018-03-08T22:29:52.651Z,4.50
2018-03-08T22:32:23.015Z,4.50
2018-03-08T22:34:53.069Z,4.50
2018-03-08T22:37:22.357Z,4.50
2018-03-08T22:39:51.652Z,4.60
2018-03-08T22:42:21.694Z,4.60
2018-03-08T22:44:51.029Z,4.50
2018-03-08T22:47:20.315Z,4.50
2018-03-08T22:49:49.591Z,4.50
2018-03-08T22:52:19.159Z,4.30
2018-03-08T22:54:48.414Z,4.30
2018-03-08T22:57:17.689Z,4.30
2018-03-08T22:59:46.960Z,4.30
2018-03-08T23:02:16.247Z,4.40
2018-03-08T23:04:45.508Z,4.30
2018-03-08T23:07:16.808Z,4.30
2018-03-08T23:09:46.043Z,4.40
2018-03-08T23:12:15.426Z,4.40
2018-03-08T23:14:44.729Z,4.40
2018-03-08T23:17:14.015Z,4.40
2018-03-08T23:19:43.343Z,4.40
2018-03-08T23:22:12.592Z,4.30
2018-03-08T23:24:42.279Z,4.30
2018-03-08T23:27:11.531Z,4.20
2018-03-08T23:29:40.864Z,4.30
2018-03-08T23:32:10.303Z,4.30
2018-03-08T23:34:39.576Z,4.20
2018-03-08T23:37:08.873Z,4.20
2018-03-08T23:39:38.583Z,4.20
2018-03-08T23:42:13.281Z,4.10
2018-03-08T23:44:43.312Z,4.10
2018-03-08T23:47:12.693Z,4.10
2018-03-08T23:49:42.751Z,4.10
2018-03-08T23:52:12.357Z,4.10
2018-03-08T23:54:41.641Z,4.20
2018-03-08T23:57:10.934Z,4.10
2018-03-08T23:59:40.207Z,4.10
